.
WxDataArchive / Data Records for 2007-12-16
2007-12-15 December 2007 2007-12-17

Data Records for Sunday, 16 December 2007

Time	Temp	Chill	HIndex	Humid	Dewpt	 Wind 	HiWind	WindDir	Rain 	Barom 
-----	----	-----	------	-----	-----	------	------	-------	-----	----- 
00:00	27.6	27.6	27.6	92	25.6	3	7	112	0.00	29.572 
00:05	27.6	27.6	27.6	92	25.6	2	5	90	0.00	29.567 
00:10	27.5	27.5	27.5	92	25.5	3	6	22	0.00	29.562 
00:15	27.5	27.5	27.5	92	25.5	2	9	90	0.00	29.551 
00:20	27.3	27.3	27.3	92	25.3	3	6	90	0.00	29.542 
00:25	27.3	22.6	27.3	92	25.3	4	13	45	0.00	29.527 
00:30	27.2	27.2	27.2	92	25.2	3	7	90	0.00	29.523 
00:35	27.0	27.0	27.0	92	25.0	3	10	90	0.00	29.525 
00:40	26.9	26.9	26.9	92	24.9	3	9	90	0.00	29.514 
00:45	26.7	26.7	26.7	92	24.7	3	9	90	0.00	29.501 
00:50	26.6	26.6	26.6	92	24.6	3	10	90	0.00	29.490 
00:55	26.4	26.4	26.4	92	24.4	3	12	112	0.00	29.494 
01:00	26.4	21.6	26.4	92	24.4	4	10	90	0.00	29.487 
01:05	26.4	26.4	26.4	92	24.4	2	6	22	0.00	29.486 
01:10	26.6	26.6	26.6	92	24.6	3	9	112	0.00	29.483 
01:15	26.7	26.7	26.7	92	24.7	2	9	45	0.00	29.482 
01:20	26.7	26.7	26.7	92	24.7	3	10	90	0.00	29.474 
01:25	26.7	26.7	26.7	92	24.7	3	7	90	0.00	29.463 
01:30	26.7	26.7	26.7	92	24.7	2	6	45	0.00	29.454 
01:35	26.7	26.7	26.7	92	24.7	2	9	90	0.00	29.452 
01:40	26.6	26.6	26.6	92	24.6	3	14	45	0.00	29.443 
01:45	26.7	26.7	26.7	92	24.7	2	9	45	0.00	29.444 
01:50	26.7	26.7	26.7	92	24.7	2	6	90	0.00	29.449 
01:55	26.9	26.9	26.9	92	24.9	2	6	45	0.00	29.439 
02:00	26.7	26.7	26.7	92	24.7	2	5	45	0.00	29.444 
02:05	26.7	26.7	26.7	92	24.7	2	6	45	0.00	29.438 
02:10	26.6	26.6	26.6	92	24.6	3	7	45	0.00	29.438 
02:15	26.6	26.6	26.6	92	24.6	2	6	112	0.00	29.440 
02:20	26.4	26.4	26.4	92	24.4	3	9	90	0.00	29.439 
02:25	26.3	26.3	26.3	92	24.3	2	6	45	0.00	29.433 
02:30	26.3	26.3	26.3	92	24.3	3	7	112	0.00	29.415 
02:35	26.1	26.1	26.1	92	24.1	2	7	68	0.00	29.407 
02:40	26.0	26.0	26.0	92	24.0	2	7	112	0.00	29.407 
02:45	25.8	25.8	25.8	92	23.8	1	5	135	0.00	29.409 
02:50	25.8	25.8	25.8	92	23.8	2	6	112	0.00	29.413 
02:55	25.7	25.7	25.7	92	23.7	1	5	112	0.00	29.416 
03:00	25.6	25.6	25.6	92	23.6	1	4	45	0.00	29.423 
03:05	25.6	25.6	25.6	92	23.6	0	2	45	0.00	29.435 
03:10	25.4	25.4	25.4	92	23.4	1	3	292	0.00	29.460 
03:15	25.4	25.4	25.4	92	23.4	0	1	270	0.00	29.445 
03:20	25.3	25.3	25.3	92	23.3	1	2	315	0.00	29.418 
03:25	25.0	25.0	25.0	92	23.0	1	4	315	0.00	29.410 
03:30	24.8	24.8	24.8	92	22.8	1	5	0	0.00	29.424 
03:35	24.7	24.7	24.7	92	22.7	1	5	0	0.00	29.408 
03:40	24.7	24.7	24.7	92	22.7	1	5	22	0.00	29.411 
03:45	24.7	24.7	24.7	92	22.7	1	4	338	0.00	29.420 
03:50	24.7	24.7	24.7	92	22.7	1	5	0	0.00	29.414 
03:55	24.5	24.5	24.5	92	22.5	1	3	270	0.00	29.452 
04:00	24.4	24.4	24.4	92	22.4	0	2	292	0.00	29.446 
04:05	24.2	24.2	24.2	92	22.2	1	4	0	0.00	29.427 
04:10	24.1	24.1	24.1	92	22.1	1	4	315	0.00	29.423 
04:15	23.9	23.9	23.9	92	21.9	1	3	292	0.00	29.423 
04:20	23.9	23.9	23.9	92	21.9	1	2	315	0.00	29.427 
04:25	23.8	23.8	23.8	92	21.8	1	3	0	0.00	29.418 
04:30	23.5	23.5	23.5	92	21.5	2	5	338	0.00	29.379 
04:35	23.3	23.3	23.3	92	21.3	2	9	338	0.00	29.380 
04:40	23.3	23.3	23.3	92	21.3	1	5	338	0.00	29.396 
04:45	23.2	23.2	23.2	92	21.2	2	7	315	0.00	29.380 
04:50	23.0	23.0	23.0	92	21.0	2	6	22	0.00	29.372 
04:55	23.0	23.0	23.0	92	21.0	2	5	45	0.00	29.381 
05:00	23.0	23.0	23.0	92	21.0	2	9	338	0.00	29.377 
05:05	22.9	22.9	22.9	92	20.9	2	6	315	0.00	29.377 
05:10	22.9	22.9	22.9	92	20.9	1	5	315	0.00	29.365 
05:15	22.9	22.9	22.9	92	20.9	2	7	0	0.00	29.350 
05:20	22.9	22.9	22.9	91	20.7	3	9	0	0.00	29.332 
05:25	22.9	22.9	22.9	91	20.7	3	10	338	0.00	29.329 
05:30	22.9	22.9	22.9	91	20.7	3	9	22	0.00	29.307 
05:35	22.9	22.9	22.9	91	20.7	3	7	22	0.00	29.294 
05:40	22.7	17.3	22.7	91	20.5	4	11	22	0.00	29.300 
05:45	22.9	22.9	22.9	91	20.7	2	7	22	0.00	29.333 
05:50	22.9	22.9	22.9	91	20.7	2	9	338	0.00	29.356 
05:55	22.9	22.9	22.9	91	20.7	1	4	292	0.00	29.389 
06:00	23.0	23.0	23.0	91	20.8	1	4	270	0.00	29.413 
06:05	23.0	23.0	23.0	91	20.8	1	3	315	0.00	29.427 
06:10	23.2	23.2	23.2	90	20.7	1	3	292	0.00	29.422 
06:15	23.2	23.2	23.2	90	20.7	1	2	338	0.00	29.420 
06:20	23.2	23.2	23.2	90	20.7	1	5	292	0.00	29.424 
06:25	23.2	23.2	23.2	90	20.7	1	4	270	0.00	29.431 
06:30	23.2	23.2	23.2	90	20.7	2	6	338	0.00	29.431 
06:35	23.2	23.2	23.2	90	20.7	2	5	315	0.00	29.432 
06:40	23.2	23.2	23.2	90	20.7	2	5	338	0.00	29.439 
06:45	23.2	23.2	23.2	90	20.7	2	6	292	0.00	29.442 
06:50	23.2	23.2	23.2	89	20.4	2	9	292	0.00	29.440 
06:55	23.2	23.2	23.2	90	20.7	2	6	292	0.00	29.438 
07:00	23.2	23.2	23.2	90	20.7	2	6	315	0.00	29.441 
07:05	23.2	23.2	23.2	90	20.7	2	7	292	0.00	29.441 
07:10	23.2	23.2	23.2	90	20.7	2	7	315	0.00	29.442 
07:15	23.2	23.2	23.2	90	20.7	3	6	292	0.00	29.442 
07:20	23.2	23.2	23.2	90	20.7	3	7	292	0.00	29.442 
07:25	23.2	23.2	23.2	90	20.7	3	7	315	0.00	29.443 
07:30	23.2	23.2	23.2	90	20.7	2	7	292	0.00	29.444 
07:35	23.2	23.2	23.2	91	21.0	2	6	292	0.00	29.445 
07:40	23.0	23.0	23.0	91	20.8	3	9	315	0.00	29.448 
07:45	23.2	23.2	23.2	91	21.0	2	6	292	0.00	29.448 
07:50	23.2	23.2	23.2	91	21.0	3	9	292	0.00	29.454 
07:55	23.2	23.2	23.2	91	21.0	3	9	315	0.00	29.457 
08:00	23.2	23.2	23.2	91	21.0	3	9	292	0.00	29.460 
08:05	23.2	23.2	23.2	91	21.0	3	10	315	0.00	29.465 
08:10	23.2	17.9	23.2	91	21.0	4	9	292	0.00	29.468 
08:15	23.3	23.3	23.3	92	21.3	3	7	315	0.00	29.473 
08:20	23.3	18.0	23.3	92	21.3	4	9	315	0.00	29.475 
08:25	23.3	18.0	23.3	92	21.3	4	9	338	0.00	29.478 
08:30	23.3	18.0	23.3	92	21.3	4	10	292	0.00	29.487 
08:35	23.3	23.3	23.3	92	21.3	3	11	338	0.00	29.491 
08:40	23.3	23.3	23.3	92	21.3	3	6	315	0.00	29.496 
08:45	23.3	23.3	23.3	92	21.3	3	6	292	0.00	29.502 
08:50	23.3	23.3	23.3	92	21.3	3	11	315	0.00	29.506 
08:55	23.3	18.0	23.3	92	21.3	4	9	315	0.00	29.507 
09:00	23.3	23.3	23.3	92	21.3	3	9	315	0.00	29.516 
09:05	23.3	18.0	23.3	92	21.3	4	11	315	0.00	29.518 
09:10	23.3	18.0	23.3	92	21.3	4	7	315	0.00	29.520 
09:15	23.5	23.5	23.5	92	21.5	3	8	315	0.00	29.520 
09:20	23.5	18.3	23.5	92	21.5	4	9	315	0.00	29.528 
09:25	23.5	23.5	23.5	92	21.5	3	10	338	0.00	29.532 
09:30	23.6	23.6	23.6	92	21.6	3	8	292	0.00	29.535 
09:35	23.6	18.4	23.6	92	21.6	4	10	292	0.00	29.538 
09:40	23.8	23.8	23.8	92	21.8	3	6	315	0.00	29.544 
09:45	23.9	23.9	23.9	92	21.9	3	9	315	0.00	29.551 
09:50	23.9	23.9	23.9	92	21.9	3	6	292	0.00	29.556 
09:55	23.9	23.9	23.9	91	21.7	3	7	315	0.00	29.563 
10:00	24.1	24.1	24.1	91	21.9	3	9	338	0.00	29.568 
10:05	24.1	19.0	24.1	91	21.9	4	11	315	0.00	29.572 
10:10	24.1	24.1	24.1	91	21.9	3	8	292	0.00	29.579 
10:15	24.2	19.1	24.2	91	22.0	4	9	292	0.00	29.582 
10:20	24.2	24.2	24.2	91	22.0	3	7	315	0.00	29.586 
10:25	24.2	24.2	24.2	91	22.0	3	7	315	0.00	29.587 
10:30	24.4	19.3	24.4	91	22.2	4	7	315	0.00	29.594 
10:35	24.4	24.4	24.4	91	22.2	3	6	292	0.00	29.598 
10:40	24.5	19.4	24.5	90	22.0	4	9	292	0.00	29.599 
10:45	24.7	24.7	24.7	90	22.2	3	6	292	0.00	29.608 
10:50	24.7	24.7	24.7	90	22.2	3	6	270	0.00	29.613 
10:55	24.7	19.6	24.7	90	22.2	4	10	315	0.00	29.617 
11:00	24.8	24.8	24.8	90	22.3	3	7	315	0.00	29.624 
11:05	24.8	24.8	24.8	90	22.3	3	7	292	0.00	29.627 
11:10	24.8	19.8	24.8	90	22.3	4	7	292	0.00	29.629 
11:15	25.0	20.0	25.0	90	22.5	4	10	315	0.00	29.630 
11:20	25.0	25.0	25.0	90	22.5	3	7	315	0.00	29.632 
11:25	25.1	20.1	25.1	89	22.3	4	11	292	0.00	29.634 
11:30	25.1	25.1	25.1	89	22.3	3	7	315	0.00	29.640 
11:35	25.3	25.3	25.3	89	22.5	3	6	315	0.00	29.643 
11:40	25.3	25.3	25.3	89	22.5	3	11	292	0.00	29.641 
11:45	25.4	25.4	25.4	89	22.6	3	7	315	0.00	29.646 
11:50	25.4	20.5	25.4	88	22.4	4	10	315	0.00	29.646 
11:55	25.4	25.4	25.4	88	22.4	3	10	292	0.00	29.648 
12:00	25.6	20.7	25.6	88	22.5	4	11	315	0.00	29.650 
12:05	25.6	20.7	25.6	88	22.5	4	9	315	0.00	29.654 
12:10	25.7	20.8	25.7	88	22.6	4	9	315	0.00	29.660 
12:15	25.8	25.8	25.8	87	22.5	3	6	292	0.00	29.660 
12:20	25.8	20.9	25.8	87	22.5	4	7	315	0.00	29.662 
12:25	26.0	21.1	26.0	87	22.7	4	7	292	0.00	29.664 
12:30	26.1	21.3	26.1	87	22.8	4	11	315	0.00	29.666 
12:35	26.1	21.3	26.1	86	22.5	4	7	315	0.00	29.673 
12:40	26.3	26.3	26.3	86	22.7	3	6	315	0.00	29.675 
12:45	26.4	26.4	26.4	85	22.5	3	7	338	0.00	29.677 
12:50	26.6	26.6	26.6	84	22.4	3	6	315	0.00	29.676 
12:55	26.6	26.6	26.6	84	22.4	3	9	315	0.00	29.678 
13:00	26.7	26.7	26.7	83	22.2	3	9	292	0.00	29.678 
13:05	26.9	22.2	26.9	82	22.2	4	8	292	0.00	29.679 
13:10	27.0	27.0	27.0	82	22.3	3	10	315	0.00	29.684 
13:15	27.0	27.0	27.0	81	22.0	3	9	315	0.00	29.689 
13:20	27.2	27.2	27.2	81	22.2	3	9	315	0.00	29.690 
13:25	27.3	27.3	27.3	80	22.0	3	7	292	0.00	29.692 
13:30	27.3	22.6	27.3	79	21.7	4	10	270	0.00	29.693 
13:35	27.3	27.3	27.3	78	21.4	3	8	315	0.00	29.700 
13:40	27.3	27.3	27.3	79	21.7	2	4	315	0.00	29.706 
13:45	27.3	27.3	27.3	78	21.4	3	10	315	0.00	29.708 
13:50	27.3	21.6	27.3	78	21.4	5	11	292	0.00	29.712 
13:55	27.3	22.6	27.3	77	21.1	4	7	315	0.00	29.714 
14:00	27.3	22.6	27.3	77	21.1	4	10	292	0.00	29.719 
14:05	27.5	22.9	27.5	77	21.3	4	10	315	0.00	29.722 
14:10	27.6	27.6	27.6	77	21.4	3	7	270	0.00	29.724 
14:15	27.8	27.8	27.8	77	21.5	3	8	292	0.00	29.724 
14:20	28.1	28.1	28.1	76	21.5	3	11	292	0.00	29.725 
14:25	28.2	23.7	28.2	76	21.6	4	9	315	0.00	29.729 
14:30	28.4	28.4	28.4	76	21.8	3	6	270	0.00	29.732 
14:35	28.5	24.0	28.5	76	21.9	4	11	270	0.00	29.735 
14:40	28.5	24.0	28.5	76	21.9	4	13	270	0.00	29.738 
14:45	28.5	28.5	28.5	77	22.2	3	6	270	0.00	29.740 
14:50	28.5	24.0	28.5	77	22.2	4	12	315	0.00	29.741 
14:55	28.8	28.8	28.8	77	22.5	3	7	270	0.00	29.747 
15:00	28.8	24.4	28.8	77	22.5	4	6	270	0.00	29.751 
15:05	28.8	24.4	28.8	77	22.5	4	9	270	0.00	29.757 
15:10	28.8	24.4	28.8	77	22.5	4	9	315	0.00	29.761 
15:15	29.0	24.6	29.0	77	22.7	4	10	270	0.00	29.766 
15:20	29.0	24.6	29.0	77	22.7	4	11	270	0.00	29.769 
15:25	29.0	29.0	29.0	77	22.7	3	6	270	0.00	29.771 
15:30	29.0	24.6	29.0	78	23.0	4	9	292	0.00	29.775 
15:35	29.1	29.1	29.1	78	23.1	3	7	270	0.00	29.783 
15:40	29.1	29.1	29.1	79	23.4	3	6	292	0.00	29.787 
15:45	29.3	29.3	29.3	79	23.6	2	5	292	0.00	29.789 
15:50	29.3	29.3	29.3	79	23.6	3	9	270	0.00	29.791 
15:55	29.3	29.3	29.3	80	23.9	3	7	270	0.00	29.797 
16:00	29.1	29.1	29.1	80	23.7	3	7	270	0.00	29.803 
16:05	29.3	29.3	29.3	81	24.2	3	12	270	0.00	29.804 
16:10	29.1	29.1	29.1	82	24.3	3	12	270	0.00	29.807 
16:15	29.1	29.1	29.1	83	24.6	3	6	270	0.00	29.813 
16:20	29.1	29.1	29.1	83	24.6	2	4	315	0.00	29.817 
16:25	29.0	29.0	29.0	83	24.5	3	6	270	0.00	29.819 
16:30	29.0	29.0	29.0	83	24.5	3	9	270	0.00	29.820 
16:35	29.0	29.0	29.0	83	24.5	3	10	270	0.00	29.824 
16:40	29.0	29.0	29.0	82	24.2	3	9	292	0.00	29.828 
16:45	29.0	29.0	29.0	82	24.2	2	5	292	0.00	29.835 
16:50	29.0	29.0	29.0	83	24.5	3	10	270	0.00	29.838 
16:55	29.0	29.0	29.0	84	24.8	3	6	292	0.00	29.844 
17:00	29.0	29.0	29.0	84	24.8	3	7	270	0.00	29.847 
17:05	29.0	29.0	29.0	84	24.8	3	5	292	0.00	29.848 
17:10	29.0	29.0	29.0	84	24.8	3	10	270	0.00	29.850 
17:15	28.8	28.8	28.8	84	24.6	3	7	270	0.00	29.852 
17:20	28.7	28.7	28.7	84	24.5	3	9	270	0.00	29.855 
17:25	28.7	28.7	28.7	84	24.5	2	5	270	0.00	29.863 
17:30	28.7	28.7	28.7	84	24.5	2	4	270	0.00	29.866 
17:35	28.5	28.5	28.5	84	24.3	2	6	270	0.00	29.869 
17:40	28.4	28.4	28.4	84	24.2	2	6	248	0.00	29.872 
17:45	28.4	28.4	28.4	83	23.9	3	7	270	0.00	29.875 
17:50	28.4	28.4	28.4	82	23.6	2	5	270	0.00	29.877 
17:55	28.4	28.4	28.4	81	23.3	3	6	270	0.00	29.881 
18:00	28.4	28.4	28.4	81	23.3	3	12	270	0.00	29.884 
18:05	28.4	28.4	28.4	80	23.0	3	7	270	0.00	29.885 
18:10	28.4	28.4	28.4	80	23.0	2	5	270	0.00	29.891 
18:15	28.2	23.7	28.2	79	22.5	4	12	270	0.00	29.895 
18:20	28.2	23.7	28.2	78	22.2	4	10	270	0.00	29.899 
18:25	28.2	23.7	28.2	78	22.2	4	11	270	0.00	29.900 
18:30	28.2	28.2	28.2	77	21.9	3	7	270	0.00	29.902 
18:35	28.2	23.7	28.2	77	21.9	4	9	270	0.00	29.910 
18:40	28.2	28.2	28.2	77	21.9	3	9	270	0.00	29.913 
18:45	28.1	28.1	28.1	76	21.5	3	9	270	0.00	29.916 
18:50	28.1	28.1	28.1	76	21.5	3	6	270	0.00	29.920 
18:55	27.9	27.9	27.9	77	21.6	3	6	270	0.00	29.923 
19:00	27.8	27.8	27.8	77	21.5	3	9	270	0.00	29.927 
19:05	27.6	27.6	27.6	77	21.4	3	9	270	0.00	29.927 
19:10	27.6	23.0	27.6	76	21.0	4	7	270	0.00	29.929 
19:15	27.5	22.9	27.5	76	20.9	4	7	270	0.00	29.931 
19:20	27.5	22.9	27.5	76	20.9	4	8	270	0.00	29.934 
19:25	27.5	27.5	27.5	76	20.9	3	7	292	0.00	29.935 
19:30	27.5	22.9	27.5	76	20.9	4	11	270	0.00	29.940 
19:35	27.3	27.3	27.3	76	20.8	3	7	270	0.00	29.943 
19:40	27.3	27.3	27.3	76	20.8	3	9	270	0.00	29.946 
19:45	27.3	27.3	27.3	76	20.8	3	6	270	0.00	29.947 
19:50	27.2	27.2	27.2	77	21.0	3	6	270	0.00	29.948 
19:55	27.2	27.2	27.2	78	21.3	3	7	270	0.00	29.948 
20:00	27.0	27.0	27.0	78	21.1	3	5	270	0.00	29.950 
20:05	27.0	27.0	27.0	79	21.4	2	4	270	0.00	29.955 
20:10	27.0	22.3	27.0	79	21.4	4	7	270	0.00	29.959 
20:15	27.0	27.0	27.0	80	21.7	3	7	270	0.00	29.961 
20:20	26.9	26.9	26.9	80	21.6	3	5	270	0.00	29.963 
20:25	26.9	26.9	26.9	81	21.9	3	6	270	0.00	29.968 
20:30	26.9	26.9	26.9	81	21.9	3	4	270	0.00	29.970 
20:35	26.9	26.9	26.9	81	21.9	3	6	270	0.00	29.973 
20:40	26.7	26.7	26.7	81	21.7	3	5	270	0.00	29.974 
20:45	26.7	26.7	26.7	81	21.7	3	5	270	0.00	29.976 
20:50	26.6	26.6	26.6	82	21.9	3	5	270	0.00	29.979 
20:55	26.6	26.6	26.6	82	21.9	3	5	270	0.00	29.980 
21:00	26.4	26.4	26.4	82	21.7	3	5	270	0.00	29.984 
21:05	26.4	26.4	26.4	82	21.7	3	6	270	0.00	29.984 
21:10	26.4	26.4	26.4	82	21.7	3	6	270	0.00	29.987 
21:15	26.4	26.4	26.4	82	21.7	3	9	270	0.00	29.988 
21:20	26.3	26.3	26.3	82	21.6	3	6	270	0.00	29.992 
21:25	26.1	26.1	26.1	81	21.1	3	6	270	0.00	29.995 
21:30	25.7	25.7	25.7	81	20.7	3	7	270	0.00	29.997 
21:35	24.8	18.6	24.8	78	18.9	5	10	248	0.00	30.004 
21:40	23.8	18.6	23.8	81	18.8	4	10	270	0.00	30.010 
21:45	23.2	17.9	23.2	78	17.4	4	9	292	0.00	30.015 
21:50	22.9	17.6	22.9	78	17.1	4	11	270	0.00	30.015 
21:55	22.4	17.0	22.4	78	16.6	4	9	270	0.00	30.016 
22:00	22.2	22.2	22.2	77	16.1	3	11	270	0.00	30.021 
22:05	21.8	16.3	21.8	77	15.7	4	11	270	0.00	30.023 
22:10	21.3	15.7	21.3	77	15.2	4	7	270	0.00	30.025 
22:15	21.1	21.1	21.1	77	15.0	3	10	248	0.00	30.028 
22:20	21.0	15.4	21.0	77	14.9	4	9	270	0.00	30.029 
22:25	20.6	20.6	20.6	77	14.6	3	6	270	0.00	30.031 
22:30	20.5	14.8	20.5	77	14.5	4	7	270	0.00	30.032 
22:35	20.5	20.5	20.5	77	14.5	3	5	270	0.00	30.034 
22:40	20.5	20.5	20.5	77	14.5	3	6	270	0.00	30.040 
22:45	20.5	20.5	20.5	77	14.5	3	6	270	0.00	30.040 
22:50	20.3	20.3	20.3	77	14.3	3	10	270	0.00	30.046 
22:55	20.0	20.0	20.0	77	14.0	3	5	270	0.00	30.047 
23:00	19.9	19.9	19.9	77	13.9	2	5	270	0.00	30.047 
23:05	19.7	19.7	19.7	77	13.7	3	6	270	0.00	30.046 
23:10	19.5	19.5	19.5	77	13.5	3	7	270	0.00	30.047 
23:15	19.4	19.4	19.4	77	13.4	3	6	270	0.00	30.049 
23:20	19.2	19.2	19.2	77	13.2	3	7	270	0.00	30.049 
23:25	19.2	19.2	19.2	78	13.5	2	4	248	0.00	30.048 
23:30	19.4	19.4	19.4	78	13.7	2	5	248	0.00	30.049 
23:35	19.4	19.4	19.4	78	13.7	2	6	270	0.00	30.050 
23:40	19.4	19.4	19.4	78	13.7	3	6	270	0.00	30.059 
23:45	19.4	19.4	19.4	78	13.7	3	7	248	0.00	30.061 
23:50	19.4	19.4	19.4	78	13.7	3	7	270	0.00	30.063 
23:55	19.4	19.4	19.4	78	13.7	3	6	270	0.00	30.063 

CoCoRaHS
IN-AL-39
A2 Web Hosting
Creative Commons License
GoDaddy
Look for:

loaded 2017-10-17 18:21:36 • last modified 2010-11-18 10:43:29
Privacy PolicyDisclaimer
• wx.awcolley.com is powered by PmWiki v.2002016 •
• all content (unless otherwise noted) © 2017 A W Colley